createdAt,value
2022-12-04T00:01:14.447Z,94.00
2022-12-04T00:03:42.395Z,93.90
2022-12-04T00:06:12.043Z,94.00
2022-12-04T00:08:40.077Z,94.00
2022-12-04T00:11:10.201Z,94.00
2022-12-04T00:13:38.672Z,94.00
2022-12-04T00:16:08.347Z,94.00
2022-12-04T00:18:36.862Z,94.00
2022-12-04T00:21:05.733Z,94.10
2022-12-04T00:23:34.055Z,94.10
2022-12-04T00:26:02.631Z,94.40
2022-12-04T00:28:31.744Z,94.10
2022-12-04T00:30:59.629Z,94.10
2022-12-04T00:33:27.611Z,94.00
2022-12-04T00:35:59.134Z,94.10
2022-12-04T00:38:27.575Z,94.10
2022-12-04T00:40:55.974Z,94.10
2022-12-04T00:43:24.086Z,94.10
2022-12-04T00:45:53.310Z,94.00
2022-12-04T00:48:21.320Z,94.10
2022-12-04T00:50:49.264Z,94.00
2022-12-04T00:53:17.070Z,94.00
2022-12-04T00:55:45.684Z,94.00
2022-12-04T00:58:14.284Z,94.10
2022-12-04T01:00:43.977Z,94.10
2022-12-04T01:03:13.206Z,94.10
2022-12-04T01:05:41.691Z,94.00
2022-12-04T01:08:10.486Z,94.10
2022-12-04T01:10:39.803Z,94.10
2022-12-04T01:13:07.678Z,94.00
2022-12-04T01:15:39.673Z,94.10
2022-12-04T01:18:07.564Z,94.10
2022-12-04T01:20:37.068Z,94.00
2022-12-04T01:23:04.934Z,94.10
2022-12-04T01:25:32.893Z,94.10
2022-12-04T01:28:00.696Z,94.10
2022-12-04T01:30:28.816Z,94.10
2022-12-04T01:32:56.648Z,94.00
2022-12-04T01:35:24.466Z,94.00
2022-12-04T01:37:53.589Z,94.10
2022-12-04T01:40:21.515Z,94.10
2022-12-04T01:42:49.368Z,94.10
2022-12-04T01:45:39.685Z,94.10
2022-12-04T01:48:16.670Z,94.40
2022-12-04T01:50:45.625Z,94.20
2022-12-04T01:53:15.579Z,94.10
2022-12-04T01:55:44.856Z,94.10
2022-12-04T01:58:13.456Z,94.20
2022-12-04T02:00:41.337Z,94.20
2022-12-04T02:03:09.524Z,94.20
2022-12-04T02:05:37.365Z,94.10
2022-12-04T02:08:06.178Z,94.10
2022-12-04T02:10:47.524Z,94.20
2022-12-04T02:13:21.761Z,94.60
2022-12-04T02:15:55.124Z,94.20
2022-12-04T02:18:28.517Z,94.20
2022-12-04T02:21:04.082Z,94.20
2022-12-04T02:24:00.385Z,94.10
2022-12-04T02:26:41.693Z,94.20
2022-12-04T02:29:16.546Z,94.20
2022-12-04T02:31:51.353Z,94.10
2022-12-04T02:34:26.502Z,94.20
2022-12-04T02:37:00.276Z,94.10
2022-12-04T02:39:35.385Z,94.20
2022-12-04T02:42:11.837Z,94.20
2022-12-04T02:44:44.814Z,94.20
2022-12-04T02:47:15.177Z,94.20
2022-12-04T02:49:47.070Z,94.20
2022-12-04T02:52:19.415Z,94.20
2022-12-04T02:54:50.634Z,94.20
2022-12-04T02:57:23.088Z,94.20
2022-12-04T02:59:54.634Z,94.20
2022-12-04T03:02:29.602Z,94.20
2022-12-04T03:05:01.978Z,94.20
2022-12-04T03:07:36.283Z,94.20
2022-12-04T03:10:07.749Z,94.20
2022-12-04T03:12:41.986Z,94.20
2022-12-04T03:15:15.766Z,94.20
2022-12-04T03:17:48.576Z,94.20
2022-12-04T03:20:17.592Z,94.20
2022-12-04T03:22:50.262Z,94.20
2022-12-04T03:25:18.543Z,94.20
2022-12-04T03:27:53.265Z,94.20
2022-12-04T03:30:24.340Z,94.20
2022-12-04T03:32:57.725Z,94.20
2022-12-04T03:35:30.358Z,94.20
2022-12-04T03:38:02.938Z,94.20
2022-12-04T03:40:38.953Z,94.20
2022-12-04T03:43:13.189Z,94.30
2022-12-04T03:45:47.166Z,94.30
2022-12-04T03:48:23.386Z,94.30
2022-12-04T03:50:56.916Z,94.20
2022-12-04T03:53:33.204Z,94.40
2022-12-04T03:56:05.809Z,94.30
2022-12-04T03:58:35.704Z,94.40
2022-12-04T04:01:08.703Z,94.40
2022-12-04T04:03:40.580Z,94.40
2022-12-04T04:06:12.295Z,94.40
2022-12-04T04:08:43.282Z,94.40
2022-12-04T04:11:17.732Z,94.50
2022-12-04T04:14:09.273Z,94.50
2022-12-04T04:16:58.968Z,94.80
2022-12-04T04:19:48.295Z,94.50
2022-12-04T04:22:36.255Z,94.50
2022-12-04T04:25:08.527Z,94.50
2022-12-04T04:27:36.379Z,94.50
2022-12-04T04:30:04.806Z,94.60
2022-12-04T04:32:37.066Z,94.60
2022-12-04T04:35:11.933Z,94.60
2022-12-04T04:37:48.426Z,94.60
2022-12-04T04:40:22.933Z,94.60
2022-12-04T04:42:55.854Z,94.60
2022-12-04T04:45:28.580Z,94.60
2022-12-04T04:48:03.198Z,94.50
2022-12-04T04:50:32.910Z,94.50
2022-12-04T04:53:04.510Z,94.60
2022-12-04T04:55:34.426Z,94.60
2022-12-04T04:58:08.029Z,94.60
2022-12-04T05:00:35.951Z,94.60
2022-12-04T05:03:05.333Z,94.60
2022-12-04T05:05:33.279Z,94.60
2022-12-04T05:08:01.139Z,94.60
2022-12-04T05:10:29.147Z,94.90
2022-12-04T05:12:57.108Z,94.50
2022-12-04T05:15:24.914Z,94.50
2022-12-04T05:17:52.741Z,94.60
2022-12-04T05:20:20.995Z,94.60
2022-12-04T05:22:48.855Z,94.60
2022-12-04T05:25:16.826Z,94.60
2022-12-04T05:27:44.718Z,94.60
2022-12-04T05:30:13.543Z,94.60
2022-12-04T05:32:41.523Z,94.60
2022-12-04T05:35:11.571Z,94.70
2022-12-04T05:37:41.835Z,94.60
2022-12-04T05:40:11.083Z,94.70
2022-12-04T05:42:39.018Z,94.70
2022-12-04T05:45:07.737Z,94.70
2022-12-04T05:47:39.298Z,94.60
2022-12-04T05:50:08.673Z,94.70
2022-12-04T05:52:36.462Z,94.60
2022-12-04T05:55:06.835Z,94.60
2022-12-04T05:57:34.615Z,94.60
2022-12-04T06:00:02.482Z,94.60
2022-12-04T06:02:30.467Z,94.60
2022-12-04T06:04:58.372Z,94.70
2022-12-04T06:07:26.255Z,94.70
2022-12-04T06:09:56.555Z,94.70
2022-12-04T06:12:25.988Z,94.70
2022-12-04T06:14:53.843Z,94.80
2022-12-04T06:17:21.658Z,94.80
2022-12-04T06:19:49.607Z,94.70
2022-12-04T06:22:17.492Z,94.80
2022-12-04T06:24:45.354Z,94.80
2022-12-04T06:27:29.039Z,94.80
2022-12-04T06:29:58.539Z,94.80
2022-12-04T06:32:26.818Z,94.80
2022-12-04T06:34:55.727Z,94.70
2022-12-04T06:37:25.695Z,94.80
2022-12-04T06:39:53.805Z,94.80
2022-12-04T06:42:21.845Z,94.70
2022-12-04T06:44:50.256Z,95.00
2022-12-04T06:47:19.416Z,94.70
2022-12-04T06:49:50.617Z,94.60
2022-12-04T06:52:18.747Z,94.60
2022-12-04T06:54:46.533Z,94.60
2022-12-04T06:57:14.338Z,94.60
2022-12-04T06:59:42.173Z,94.70
2022-12-04T07:02:11.437Z,94.60
2022-12-04T07:04:40.629Z,94.60
2022-12-04T07:07:09.917Z,94.60
2022-12-04T07:09:38.044Z,94.50
2022-12-04T07:12:06.721Z,94.50
2022-12-04T07:14:34.499Z,94.50
2022-12-04T07:17:02.394Z,94.50
2022-12-04T07:19:30.254Z,94.50
2022-12-04T07:21:59.401Z,94.60
2022-12-04T07:24:27.232Z,94.60
2022-12-04T07:26:55.346Z,94.60
2022-12-04T07:29:23.147Z,94.90
2022-12-04T07:31:51.012Z,94.60
2022-12-04T07:34:18.911Z,94.60
2022-12-04T07:36:46.689Z,94.60
2022-12-04T07:39:15.840Z,94.60
2022-12-04T07:41:43.648Z,94.60
2022-12-04T07:44:11.431Z,94.50
2022-12-04T07:46:39.324Z,94.60
2022-12-04T07:49:07.130Z,94.60
2022-12-04T07:51:34.937Z,94.70
2022-12-04T07:54:04.316Z,94.80
2022-12-04T07:56:34.567Z,94.80
2022-12-04T07:59:02.964Z,94.90
2022-12-04T08:01:31.127Z,94.90
2022-12-04T08:04:01.263Z,94.90
2022-12-04T08:06:30.617Z,95.00
2022-12-04T08:08:58.449Z,95.00
2022-12-04T08:11:28.316Z,95.00
2022-12-04T08:13:58.829Z,95.00
2022-12-04T08:16:27.841Z,95.00
2022-12-04T08:18:56.170Z,95.00
2022-12-04T08:21:25.684Z,95.00
2022-12-04T08:23:55.234Z,95.00
2022-12-04T08:26:24.921Z,95.00
2022-12-04T08:28:54.691Z,95.00
2022-12-04T08:31:26.539Z,95.00
2022-12-04T08:33:56.876Z,95.00
2022-12-04T08:36:25.391Z,95.00
2022-12-04T08:38:53.603Z,95.00
2022-12-04T08:41:24.321Z,94.90
2022-12-04T08:43:54.505Z,94.90
2022-12-04T08:46:24.692Z,94.80
2022-12-04T08:48:52.845Z,94.70
2022-12-04T08:51:22.610Z,94.70
2022-12-04T08:53:55.337Z,94.70
2022-12-04T08:56:23.819Z,94.60
2022-12-04T08:58:51.717Z,94.70
2022-12-04T09:01:20.010Z,94.70
2022-12-04T09:03:49.212Z,94.60
2022-12-04T09:06:17.421Z,94.60
2022-12-04T09:08:45.574Z,94.60
2022-12-04T09:11:14.874Z,94.60
2022-12-04T09:13:44.055Z,94.60
2022-12-04T09:16:14.489Z,94.60
2022-12-04T09:18:42.871Z,94.60
2022-12-04T09:21:14.621Z,94.60
2022-12-04T09:23:42.814Z,94.60
2022-12-04T09:26:19.344Z,94.60
2022-12-04T09:28:47.260Z,94.50
2022-12-04T09:31:15.402Z,94.60
2022-12-04T09:33:43.267Z,94.60
2022-12-04T09:36:16.091Z,94.60
2022-12-04T09:38:45.323Z,94.60
2022-12-04T09:41:26.145Z,94.60
2022-12-04T09:43:58.782Z,94.60
2022-12-04T09:46:30.203Z,94.60
2022-12-04T09:48:59.497Z,94.70
2022-12-04T09:51:30.585Z,94.60
2022-12-04T09:54:04.029Z,94.70
2022-12-04T09:56:33.243Z,94.60
2022-12-04T09:59:06.870Z,94.70
2022-12-04T10:01:44.311Z,94.70
2022-12-04T10:04:13.507Z,94.80
2022-12-04T10:06:49.122Z,94.70
2022-12-04T10:09:23.309Z,94.70
2022-12-04T10:12:00.867Z,94.70
2022-12-04T10:14:52.041Z,94.70
2022-12-04T10:17:36.609Z,94.70
2022-12-04T10:20:19.550Z,94.70
2022-12-04T10:22:57.998Z,94.80
2022-12-04T10:25:27.180Z,94.70
2022-12-04T10:27:58.788Z,94.70
2022-12-04T10:30:29.718Z,94.70
2022-12-04T10:33:01.717Z,94.70
2022-12-04T10:35:32.787Z,94.80
2022-12-04T10:38:07.457Z,94.70
2022-12-04T10:40:40.243Z,94.80
2022-12-04T10:43:17.617Z,94.80
2022-12-04T10:45:45.721Z,94.90
2022-12-04T10:48:21.978Z,94.80
2022-12-04T10:50:49.893Z,94.90
2022-12-04T10:53:25.897Z,94.90
2022-12-04T10:55:53.990Z,94.90
2022-12-04T10:58:21.812Z,94.80
2022-12-04T11:01:04.909Z,94.80
2022-12-04T11:03:33.394Z,94.90
2022-12-04T11:06:03.045Z,94.80
2022-12-04T11:08:37.598Z,94.80
2022-12-04T11:11:07.934Z,94.80
2022-12-04T11:13:36.315Z,95.10
2022-12-04T11:16:06.328Z,94.70
2022-12-04T11:18:36.408Z,94.70
2022-12-04T11:21:06.400Z,94.70
2022-12-04T11:23:42.736Z,94.70
2022-12-04T11:26:11.769Z,94.70
2022-12-04T11:28:42.804Z,94.70
2022-12-04T11:31:22.234Z,94.70
2022-12-04T11:33:54.385Z,94.70
2022-12-04T11:36:25.173Z,94.80
2022-12-04T11:39:04.876Z,94.70
2022-12-04T11:41:34.136Z,94.70
2022-12-04T11:44:01.986Z,94.80
2022-12-04T11:46:31.880Z,94.80
2022-12-04T11:48:59.843Z,94.80
2022-12-04T11:51:40.192Z,94.80
2022-12-04T11:54:24.927Z,94.80
2022-12-04T11:57:04.809Z,94.80
2022-12-04T11:59:49.412Z,94.80
2022-12-04T12:02:42.045Z,94.80
2022-12-04T12:05:25.213Z,94.80
2022-12-04T12:08:03.095Z,94.80
2022-12-04T12:10:42.975Z,94.90
2022-12-04T12:13:24.635Z,95.00
2022-12-04T12:16:04.328Z,94.90
2022-12-04T12:18:52.362Z,94.90
2022-12-04T12:21:24.990Z,94.90
2022-12-04T12:24:07.490Z,94.90
2022-12-04T12:26:50.303Z,94.80
2022-12-04T12:29:37.674Z,94.90
2022-12-04T12:32:29.363Z,95.00
2022-12-04T12:34:57.171Z,95.00
2022-12-04T12:37:29.081Z,95.10
2022-12-04T12:40:02.931Z,95.10
2022-12-04T12:42:37.022Z,95.20
2022-12-04T12:45:17.587Z,95.10
2022-12-04T12:47:48.930Z,95.10
2022-12-04T12:50:18.449Z,95.20
2022-12-04T12:52:53.458Z,95.20
2022-12-04T12:55:25.473Z,95.20
2022-12-04T12:58:01.464Z,95.20
2022-12-04T13:00:33.201Z,95.20
2022-12-04T13:03:05.025Z,95.30
2022-12-04T13:05:38.502Z,95.40
2022-12-04T13:08:17.923Z,95.40
2022-12-04T13:10:50.528Z,95.40
2022-12-04T13:13:25.901Z,95.40
2022-12-04T13:15:58.450Z,95.40
2022-12-04T13:18:29.981Z,95.40
2022-12-04T13:21:00.444Z,95.30
2022-12-04T13:23:43.960Z,95.40
2022-12-04T13:26:21.001Z,95.40
2022-12-04T13:28:57.010Z,95.70
2022-12-04T13:31:33.197Z,95.40
2022-12-04T13:34:15.733Z,95.40
2022-12-04T13:36:58.313Z,95.40
2022-12-04T13:39:47.990Z,95.40
2022-12-04T13:42:25.134Z,95.40
2022-12-04T13:44:59.895Z,95.50
2022-12-04T13:47:31.713Z,95.50
2022-12-04T13:50:26.967Z,95.50
2022-12-04T13:52:55.788Z,95.50
2022-12-04T13:55:29.674Z,95.40
2022-12-04T13:58:00.015Z,95.50
2022-12-04T14:00:32.603Z,95.50
2022-12-04T14:03:03.940Z,95.50
2022-12-04T14:05:41.019Z,95.50
2022-12-04T14:08:23.605Z,95.50
2022-12-04T14:11:01.071Z,95.40
2022-12-04T14:13:36.696Z,95.50
2022-12-04T14:16:10.016Z,95.50
2022-12-04T14:18:38.997Z,95.80
2022-12-04T14:21:07.386Z,95.50
2022-12-04T14:23:38.082Z,95.50
2022-12-04T14:26:06.680Z,95.40
2022-12-04T14:28:44.394Z,95.40
2022-12-04T14:31:23.241Z,95.50
2022-12-04T14:33:54.123Z,95.40
2022-12-04T14:36:25.748Z,95.40
2022-12-04T14:39:03.159Z,95.40
2022-12-04T14:41:31.041Z,95.30
2022-12-04T14:43:59.002Z,95.70
2022-12-04T14:46:35.733Z,95.40
2022-12-04T14:49:24.638Z,95.40
2022-12-04T14:51:59.578Z,95.40
2022-12-04T14:54:34.467Z,95.30
2022-12-04T14:57:17.887Z,95.30
2022-12-04T14:59:48.310Z,95.30
2022-12-04T15:02:20.343Z,95.20
2022-12-04T15:04:49.729Z,95.20
2022-12-04T15:07:21.753Z,95.20
2022-12-04T15:10:12.711Z,95.30
2022-12-04T15:12:46.990Z,95.20
2022-12-04T15:15:19.464Z,95.30
2022-12-04T15:17:58.952Z,95.20
2022-12-04T15:20:28.893Z,95.40
2022-12-04T15:22:58.841Z,95.20
2022-12-04T15:25:29.333Z,95.20
2022-12-04T15:28:07.075Z,95.20
2022-12-04T15:30:38.189Z,95.20
2022-12-04T15:33:07.954Z,95.10
2022-12-04T15:35:36.060Z,95.20
2022-12-04T15:38:04.047Z,95.50
2022-12-04T15:40:32.059Z,95.20
2022-12-04T15:43:16.720Z,95.10
2022-12-04T15:45:45.080Z,95.20
2022-12-04T15:48:24.775Z,95.20
2022-12-04T15:50:58.142Z,95.20
2022-12-04T15:53:29.008Z,95.30
2022-12-04T15:55:59.704Z,95.40
2022-12-04T15:58:30.231Z,95.40
2022-12-04T16:00:59.987Z,95.30
2022-12-04T16:03:31.975Z,95.30
2022-12-04T16:06:05.304Z,95.30
2022-12-04T16:08:34.776Z,95.30
2022-12-04T16:11:04.252Z,95.20
2022-12-04T16:13:34.729Z,95.30
2022-12-04T16:16:07.067Z,95.30
2022-12-04T16:18:36.330Z,95.30
2022-12-04T16:21:04.250Z,95.30
2022-12-04T16:23:33.585Z,95.20
2022-12-04T16:26:01.460Z,95.20
2022-12-04T16:28:29.615Z,95.20
2022-12-04T16:30:57.528Z,95.20
2022-12-04T16:33:25.475Z,95.20
2022-12-04T16:35:54.662Z,95.10
2022-12-04T16:38:22.492Z,95.10
2022-12-04T16:40:50.296Z,95.00
2022-12-04T16:43:18.541Z,95.10
2022-12-04T16:45:48.570Z,95.10
2022-12-04T16:48:16.626Z,95.00
2022-12-04T16:50:45.301Z,95.00
2022-12-04T16:53:17.405Z,95.10
2022-12-04T16:55:47.403Z,95.20
2022-12-04T16:58:15.975Z,95.20
2022-12-04T17:00:46.844Z,95.30
2022-12-04T17:03:18.875Z,95.70
2022-12-04T17:05:46.805Z,95.50
2022-12-04T17:08:16.202Z,95.40
2022-12-04T17:10:44.247Z,95.50
2022-12-04T17:13:12.126Z,95.50
2022-12-04T17:15:40.040Z,95.50
2022-12-04T17:18:12.916Z,95.50
2022-12-04T17:20:43.854Z,95.40
2022-12-04T17:23:12.848Z,95.50
2022-12-04T17:25:42.031Z,95.50
2022-12-04T17:28:10.086Z,95.50
2022-12-04T17:30:39.911Z,95.50
2022-12-04T17:33:07.858Z,95.50
2022-12-04T17:35:35.889Z,95.50
2022-12-04T17:38:06.173Z,95.50
2022-12-04T17:40:34.472Z,95.50
2022-12-04T17:43:04.011Z,95.50
2022-12-04T17:45:32.021Z,95.50
2022-12-04T17:48:00.562Z,95.50
2022-12-04T17:50:28.660Z,95.50
2022-12-04T17:52:56.437Z,95.50
2022-12-04T17:55:24.698Z,95.50
2022-12-04T17:57:52.477Z,95.50
2022-12-04T18:00:21.839Z,95.50
2022-12-04T18:02:53.181Z,95.50
2022-12-04T18:05:21.818Z,95.60
2022-12-04T18:07:49.879Z,95.60
2022-12-04T18:10:18.044Z,95.60
2022-12-04T18:12:45.856Z,95.60
2022-12-04T18:15:13.803Z,95.60
2022-12-04T18:17:43.053Z,95.60
2022-12-04T18:20:11.478Z,95.60
2022-12-04T18:22:39.461Z,95.60
2022-12-04T18:25:08.940Z,95.60
2022-12-04T18:27:41.555Z,95.50
2022-12-04T18:30:10.790Z,95.50
2022-12-04T18:32:38.629Z,95.50
2022-12-04T18:35:08.727Z,95.50
2022-12-04T18:37:36.728Z,95.50
2022-12-04T18:40:06.910Z,95.50
2022-12-04T18:42:37.527Z,95.50
2022-12-04T18:45:06.095Z,95.50
2022-12-04T18:47:33.912Z,95.50
2022-12-04T18:50:01.723Z,95.40
2022-12-04T18:52:33.152Z,95.40
2022-12-04T18:55:01.146Z,95.40
2022-12-04T18:57:29.058Z,95.40
2022-12-04T18:59:57.016Z,95.40
2022-12-04T19:02:25.106Z,95.30
2022-12-04T19:04:53.097Z,95.30
2022-12-04T19:07:20.914Z,95.30
2022-12-04T19:12:37.845Z,95.30
2022-12-04T19:15:06.434Z,95.30
2022-12-04T19:17:34.303Z,95.20
2022-12-04T19:20:02.132Z,95.20
2022-12-04T19:22:30.759Z,95.30
2022-12-04T19:24:59.896Z,95.30
2022-12-04T19:27:27.774Z,95.30
2022-12-04T19:29:55.914Z,95.30
2022-12-04T19:32:24.098Z,95.30
2022-12-04T19:34:52.055Z,95.30
2022-12-04T19:37:19.897Z,95.20
2022-12-04T19:39:48.179Z,95.30
2022-12-04T19:42:17.495Z,95.30
2022-12-04T19:44:49.600Z,95.40
2022-12-04T19:47:18.474Z,95.30
2022-12-04T19:49:46.491Z,95.40
2022-12-04T19:52:14.540Z,95.40
2022-12-04T19:54:42.403Z,95.30
2022-12-04T19:57:10.197Z,95.30
2022-12-04T19:59:44.542Z,95.30
2022-12-04T20:02:14.458Z,95.30
2022-12-04T20:04:43.057Z,95.30
2022-12-04T20:07:10.898Z,95.20
2022-12-04T20:09:38.772Z,95.20
2022-12-04T20:12:06.918Z,95.20
2022-12-04T20:14:34.812Z,95.20
2022-12-04T20:17:05.103Z,95.20
2022-12-04T20:19:33.080Z,95.20
2022-12-04T20:22:00.857Z,95.10
2022-12-04T20:24:28.656Z,95.20
2022-12-04T20:26:56.487Z,95.20
2022-12-04T20:29:24.340Z,95.20
2022-12-04T20:31:52.311Z,95.20
2022-12-04T20:34:21.755Z,95.30
2022-12-04T20:36:50.019Z,95.30
2022-12-04T20:39:19.103Z,95.30
2022-12-04T20:41:47.478Z,95.30
2022-12-04T20:44:19.000Z,95.30
2022-12-04T20:46:47.289Z,95.40
2022-12-04T20:49:21.907Z,95.40
2022-12-04T20:51:52.788Z,95.40
2022-12-04T20:54:22.446Z,95.40
2022-12-04T20:56:52.684Z,95.40
2022-12-04T20:59:22.525Z,95.40
2022-12-04T21:01:51.370Z,95.50
2022-12-04T21:04:19.883Z,95.40
2022-12-04T21:06:47.935Z,95.40
2022-12-04T21:09:19.349Z,95.40
2022-12-04T21:11:49.776Z,95.40
2022-12-04T21:14:37.626Z,95.40
2022-12-04T21:17:07.501Z,95.40
2022-12-04T21:19:35.563Z,95.50
2022-12-04T21:22:03.409Z,95.80
2022-12-04T21:24:37.126Z,95.40
2022-12-04T21:27:05.114Z,95.40
2022-12-04T21:29:33.041Z,95.40
2022-12-04T21:32:00.976Z,95.40
2022-12-04T21:34:28.927Z,95.40
2022-12-04T21:36:56.768Z,95.50
2022-12-04T21:39:25.450Z,95.50
2022-12-04T21:42:12.162Z,95.50
2022-12-04T21:44:40.245Z,95.50
2022-12-04T21:47:08.015Z,95.50
2022-12-04T21:49:35.797Z,95.50
2022-12-04T21:52:03.846Z,95.40
2022-12-04T21:54:31.922Z,95.50
2022-12-04T21:57:01.219Z,95.50
2022-12-04T21:59:29.209Z,95.50
2022-12-04T22:01:57.096Z,95.50
2022-12-04T22:04:24.964Z,95.50
2022-12-04T22:06:52.875Z,95.50
2022-12-04T22:09:20.841Z,95.50
2022-12-04T22:11:48.804Z,95.40
2022-12-04T22:14:18.044Z,95.40
2022-12-04T22:16:45.932Z,95.40
2022-12-04T22:19:14.122Z,95.50
2022-12-04T22:21:42.216Z,95.40
2022-12-04T22:24:11.355Z,95.40
2022-12-04T22:26:39.721Z,95.40
2022-12-04T22:29:41.620Z,95.50
2022-12-04T22:31:56.976Z,95.40
2022-12-04T22:34:24.862Z,95.40
2022-12-04T22:36:52.661Z,95.40
2022-12-04T22:39:20.627Z,95.40
2022-12-04T22:41:48.579Z,95.40
2022-12-04T22:44:16.592Z,95.40
2022-12-04T22:46:44.510Z,95.40
2022-12-04T22:49:13.777Z,95.50
2022-12-04T22:51:41.674Z,95.40
2022-12-04T22:54:14.745Z,95.40
2022-12-04T22:56:43.468Z,95.40
2022-12-04T22:59:11.424Z,95.40
2022-12-04T23:01:40.327Z,95.40
2022-12-04T23:04:08.248Z,95.40
2022-12-04T23:06:37.706Z,95.40
2022-12-04T23:09:08.621Z,95.40
2022-12-04T23:11:37.118Z,95.50
2022-12-04T23:14:08.695Z,95.50
2022-12-04T23:16:38.714Z,95.60
2022-12-04T23:19:08.045Z,95.60
2022-12-04T23:21:37.481Z,95.60
2022-12-04T23:24:06.172Z,95.60
2022-12-04T23:26:36.245Z,95.60
2022-12-04T23:29:17.847Z,95.70
2022-12-04T23:31:52.983Z,95.60
2022-12-04T23:34:20.856Z,95.60
2022-12-04T23:36:49.973Z,95.60
2022-12-04T23:39:17.815Z,95.60
2022-12-04T23:41:45.787Z,95.60
2022-12-04T23:44:13.566Z,95.70
2022-12-04T23:46:41.519Z,95.70
2022-12-04T23:49:09.492Z,95.70
2022-12-04T23:51:37.425Z,95.70
2022-12-04T23:54:06.932Z,95.70
2022-12-04T23:56:34.765Z,95.70
2022-12-04T23:59:02.605Z,95.70
